Time;durP1;ratioP1;P1;durP2;ratioP2;P2;SDS_P1;SDS_P2;PMS_P1;PMS_P2;Temp;Humidity;BMP_temperature;BMP_pressure;BME280_temperature;BME280_humidity;BME280_pressure;Samples;Min_cycle;Max_cycle;Signal;HPM_P1;HPM_P2
2022/08/14 00:00:49;;;;;;;;;;;;;;;;;;4957134;28;19942;-87
2022/08/14 00:03:16;;;;;;;;;;;;;;;;;;4954997;28;19914;-88
2022/08/14 00:05:45;;;;;;;;;;;;;;;;;;4955845;28;20032;-90
2022/08/14 00:08:17;;;;;;;;;;;;;;;;;;4962043;28;19965;-90
2022/08/14 00:10:54;;;;;;;;;;;;;;;;;;4949741;28;19919;-88
2022/08/14 00:13:26;;;;;;;;;;;;;;;;;;4941972;28;19948;-87
2022/08/14 00:16:03;;;;;;;;;;;;;;;;;;4953994;28;19989;-88
2022/08/14 00:21:43;;;;;;;;;;;;;;;;;;4960029;28;20014;-89
2022/08/14 00:24:20;;;;;;;;;;;;;;;;;;4963901;28;19923;-88
2022/08/14 00:26:59;;;;;;;;;;;;;;;;;;;;;
2022/08/14 00:29:51;;;;;;;;;;;;;;;;;;4968336;28;19961;-89
2022/08/14 00:32:23;;;;;;;;;;;;;;;;;;4951840;28;19907;-87
2022/08/14 00:34:52;;;;;;;;;;;;;;;;;;4968862;28;19915;-87
2022/08/14 00:37:25;;;;;;;;;;;;;;;;;;4963307;28;19960;-88
2022/08/14 00:39:53;;;;;;;;;;;;;;;;;;4946343;29;19915;-87
2022/08/14 00:42:19;;;;;;;;;;;;;;;;;;4947864;28;19919;-88
2022/08/14 00:44:46;;;;;;;;;;;;;;;;;;4978722;28;19914;-91
2022/08/14 00:47:11;;;;;;;;;;;;;;;;;;4958255;28;19914;-88
2022/08/14 00:49:39;;;;;;;;;;;;;;;;;;4957745;28;19922;-90
2022/08/14 00:52:23;;;;;;;;;;;;;;;;;;4980396;28;19959;-91
2022/08/14 00:54:55;;;;;;;;;;;;;;;;;;4957980;28;19976;-92
2022/08/14 00:57:25;;;;;;;;;;;;;;;;;;4957667;28;19918;-92
2022/08/14 00:59:56;;;;;;;;;;;;;;;;;;4955818;28;19921;-89
2022/08/14 01:02:27;;;;;;;;;;;;;;;;;;4961371;28;19914;-89
2022/08/14 01:04:56;;;;;;;;;;;;;;;;;;4952714;28;19986;-88
2022/08/14 01:07:22;;;;;;;;;;;;;;;;;;4935371;28;19937;-91
2022/08/14 01:09:53;;;;;;;;;;;;;;;;;;4941175;28;20025;-88
2022/08/14 01:12:31;;;;;;;;;;;;;;;;;;4935775;28;20584;-87
2022/08/14 01:14:58;;;;;;;;;;;;;;;;;;4931523;28;20437;-90
2022/08/14 01:21:02;;;;;;;;;;;;;;;;;;4950429;28;19922;-88
2022/08/14 01:22:56;;;;;;;;;;;;;;;;;;4953733;28;20013;-90
2022/08/14 01:25:24;;;;;;;;;;;;;;;;;;4956817;28;19914;-89
2022/08/14 01:27:56;;;;;;;;;;;;;;;;;;4957685;28;19959;-90
2022/08/14 01:30:25;;;;;;;;;;;;;;;;;;4937536;28;20084;-89
2022/08/14 01:33:11;;;;;;;;;;;;;;;;;;4937545;28;19918;-88
2022/08/14 01:35:43;;;;;;;;;;;;;;;;;;4953347;28;19915;-90
2022/08/14 01:38:11;;;;;;;;;;;;;;;;;;4938825;28;20398;-88
2022/08/14 01:40:37;;;;;;;;;;;;;;;;;;4936980;28;20009;-89
2022/08/14 01:43:05;;;;;;;;;;;;;;;;;;4941329;28;20434;-90
2022/08/14 01:45:30;;;;;;;;;;;;;;;;;;4953411;28;20064;-89
2022/08/14 01:47:57;;;;;;;;;;;;;;;;;;4947180;28;19961;-88
2022/08/14 01:50:46;;;;;;;;;;;;;;;;;;4959081;28;20012;-88
2022/08/14 01:53:13;;;;;;;;;;;;;;;;;;4959735;28;19977;-88
2022/08/14 01:55:50;;;;;;;;;;;;;;;;;;4938639;28;19914;-90
2022/08/14 01:58:17;;;;;;;;;;;;;;;;;;4957805;28;19999;-89
2022/08/14 02:00:44;;;;;;;;;;;;;;;;;;4943435;28;19923;-89
2022/08/14 02:03:12;;;;;;;;;;;;;;;;;;4951679;28;19954;-91
2022/08/14 02:05:41;;;;;;;;;;;;;;;;;;4969946;28;20006;-91
2022/08/14 02:08:06;;;;;;;;;;;;;;;;;;4948342;28;19985;-89
2022/08/14 02:10:34;;;;;;;;;;;;;;;;;;4975777;28;19911;-87
2022/08/14 02:13:06;;;;;;;;;;;;;;;;;;4937823;28;19949;-89
2022/08/14 02:15:32;;;;;;;;;;;;;;;;;;4961656;28;19924;-89
2022/08/14 02:18:00;;;;;;;;;;;;;;;;;;4960394;28;19910;-91
2022/08/14 02:20:26;;;;;;;;;;;;;;;;;;4941657;28;19937;-88
2022/08/14 02:22:54;;;;;;;;;;;;;;;;;;4938399;28;19914;-88
2022/08/14 02:25:25;;;;;;;;;;;;;;;;;;4945718;28;19950;-91
2022/08/14 02:27:56;;;;;;;;;;;;;;;;;;4947434;28;20342;-88
2022/08/14 02:30:23;;;;;;;;;;;;;;;;;;4947502;28;19922;-89
2022/08/14 02:32:49;;;;;;;;;;;;;;;;;;4930501;28;20593;-89
2022/08/14 02:35:17;;;;;;;;;;;;;;;;;;4953013;28;19977;-89
2022/08/14 02:37:43;;;;;;;;;;;;;;;;;;4958367;28;21413;-89
2022/08/14 02:40:08;;;;;;;;;;;;;;;;;;4958438;28;19985;-89
2022/08/14 02:42:38;;;;;;;;;;;;;;;;;;4934913;28;19949;-91
2022/08/14 02:45:03;;;;;;;;;;;;;;;;;;4957245;28;20013;-87
2022/08/14 02:47:34;;;;;;;;;;;;;;;;;;4967238;28;19954;-88
2022/08/14 02:50:03;;;;;;;;;;;;;;;;;;4959691;28;20088;-87
2022/08/14 02:52:28;;;;;;;;;;;;;;;;;;4948752;28;20347;-90
2022/08/14 02:54:57;;;;;;;;;;;;;;;;;;4956301;28;19968;-91
2022/08/14 02:57:27;;;;;;;;;;;;;;;;;;4956232;28;19929;-89
2022/08/14 02:59:52;;;;;;;;;;;;;;;;;;4963704;28;20008;-87
2022/08/14 03:02:24;;;;;;;;;;;;;;;;;;4968068;28;20009;-86
2022/08/14 03:04:53;;;;;;;;;;;;;;;;;;4968856;28;19988;-88
2022/08/14 03:07:18;;;;;;;;;;;;;;;;;;4945821;28;19959;-85
2022/08/14 03:09:44;;;;;;;;;;;;;;;;;;4962875;28;20566;-86
2022/08/14 03:12:12;;;;;;;;;;;;;;;;;;4964327;28;19923;-87
2022/08/14 03:14:43;;;;;;;;;;;;;;;;;;4947949;28;19929;-88
2022/08/14 03:17:10;;;;;;;;;;;;;;;;;;4982190;28;20291;-87
2022/08/14 03:19:38;;;;;;;;;;;;;;;;;;4945410;28;19922;-90
2022/08/14 03:22:04;;;;;;;;;;;;;;;;;;4948377;28;19918;-91
2022/08/14 03:24:29;;;;;;;;;;;;;;;;;;4940606;28;19933;-90
2022/08/14 03:26:58;;;;;;;;;;;;;;;;;;4959716;28;19950;-90
2022/08/14 03:29:24;;;;;;;;;;;;;;;;;;4966021;28;20017;-88
2022/08/14 03:31:50;;;;;;;;;;;;;;;;;;4951884;28;20006;-90
2022/08/14 03:34:21;;;;;;;;;;;;;;;;;;4969883;28;19933;-89
2022/08/14 03:36:46;;;;;;;;;;;;;;;;;;4966764;28;19915;-87
2022/08/14 03:39:11;;;;;;;;;;;;;;;;;;4952000;28;19919;-88
2022/08/14 03:41:39;;;;;;;;;;;;;;;;;;4950776;28;20313;-89
2022/08/14 03:44:16;;;;;;;;;;;;;;;;;;4964873;28;19914;-90
2022/08/14 03:46:43;;;;;;;;;;;;;;;;;;4969147;28;20352;-89
2022/08/14 03:49:17;;;;;;;;;;;;;;;;;;4952745;28;19926;-89
2022/08/14 03:51:49;;;;;;;;;;;;;;;;;;4971160;28;19919;-89
2022/08/14 03:54:17;;;;;;;;;;;;;;;;;;4956786;29;19911;-91
2022/08/14 03:56:49;;;;;;;;;;;;;;;;;;4961967;28;19926;-89
2022/08/14 03:59:14;;;;;;;;;;;;;;;;;;4953342;28;20523;-89
2022/08/14 04:01:46;;;;;;;;;;;;;;;;;;4972201;28;20025;-90
2022/08/14 04:04:14;;;;;;;;;;;;;;;;;;4940161;28;19965;-88
2022/08/14 04:06:40;;;;;;;;;;;;;;;;;;4936892;28;19919;-90
2022/08/14 04:09:05;;;;;;;;;;;;;;;;;;4968716;28;19989;-90
2022/08/14 04:11:40;;;;;;;;;;;;;;;;;;4962574;28;20039;-91
2022/08/14 04:14:06;;;;;;;;;;;;;;;;;;4955105;28;19930;-92
2022/08/14 04:16:32;;;;;;;;;;;;;;;;;;4940252;28;19915;-90
2022/08/14 04:18:58;;;;;;;;;;;;;;;;;;4963938;28;19914;-90
2022/08/14 04:21:27;;;;;;;;;;;;;;;;;;4967270;28;19917;-89
2022/08/14 04:23:52;;;;;;;;;;;;;;;;;;4966064;28;19915;-91
2022/08/14 04:26:21;;;;;;;;;;;;;;;;;;4955952;28;20335;-90
2022/08/14 04:28:48;;;;;;;;;;;;;;;;;;4954492;28;19919;-92
2022/08/14 04:31:17;;;;;;;;;;;;;;;;;;4941623;28;20190;-89
2022/08/14 04:33:43;;;;;;;;;;;;;;;;;;4939562;28;19923;-90
2022/08/14 04:36:08;;;;;;;;;;;;;;;;;;4949937;28;19989;-89
2022/08/14 04:44:11;;;;;;;;;;;;;;;;;;4948425;28;19927;-89
2022/08/14 04:46:37;;;;;;;;;;;;;;;;;;4936745;28;19918;-90
2022/08/14 04:49:06;;;;;;;;;;;;;;;;;;4948630;28;19970;-87
2022/08/14 04:51:35;;;;;;;;;;;;;;;;;;4949492;28;20048;-88
2022/08/14 04:54:00;;;;;;;;;;;;;;;;;;4937155;28;19922;-89
2022/08/14 04:56:25;;;;;;;;;;;;;;;;;;4950054;28;19925;-93
2022/08/14 04:58:56;;;;;;;;;;;;;;;;;;4941657;28;20608;-90
2022/08/14 05:01:21;;;;;;;;;;;;;;;;;;4953461;28;19923;-90
2022/08/14 05:03:52;;;;;;;;;;;;;;;;;;4937406;28;19923;-91
2022/08/14 05:06:25;;;;;;;;;;;;;;;;;;4950490;28;19922;-89
2022/08/14 05:08:51;;;;;;;;;;;;;;;;;;4936036;28;19926;-90
2022/08/14 05:11:18;;;;;;;;;;;;;;;;;;4948748;28;19982;-89
2022/08/14 05:13:43;;;;;;;;;;;;;;;;;;4940036;28;19976;-88
2022/08/14 05:16:17;;;;;;;;;;;;;;;;;;4935669;28;19915;-89
2022/08/14 05:18:48;;;;;;;;;;;;;;;;;;4934014;28;19925;-91
2022/08/14 05:21:14;;;;;;;;;;;;;;;;;;4944408;28;19922;-90
2022/08/14 05:23:55;;;;;;;;;;;;;;;;;;4951040;28;19915;-90
2022/08/14 05:26:22;;;;;;;;;;;;;;;;;;4951191;28;19968;-88
2022/08/14 05:28:47;;;;;;;;;;;;;;;;;;4936189;28;19923;-88
2022/08/14 05:31:18;;;;;;;;;;;;;;;;;;4951935;28;20367;-89
2022/08/14 05:33:43;;;;;;;;;;;;;;;;;;4954628;28;19933;-88
2022/08/14 05:36:32;;;;;;;;;;;;;;;;;;4956597;28;19915;-90
2022/08/14 05:39:01;;;;;;;;;;;;;;;;;;4952655;28;19914;-89
2022/08/14 05:41:33;;;;;;;;;;;;;;;;;;4952324;28;19914;-88
2022/08/14 05:44:15;;;;;;;;;;;;;;;;;;4943172;28;20007;-89
2022/08/14 05:46:41;;;;;;;;;;;;;;;;;;4923820;28;19922;-88
2022/08/14 05:49:06;;;;;;;;;;;;;;;;;;4945899;28;19922;-89
2022/08/14 05:51:59;;;;;;;;;;;;;;;;;;4926240;29;19926;-90
2022/08/14 05:54:27;;;;;;;;;;;;;;;;;;4957163;28;19933;-89
2022/08/14 05:56:58;;;;;;;;;;;;;;;;;;4917613;28;20002;-89
2022/08/14 05:59:23;;;;;;;;;;;;;;;;;;4888605;29;20387;-88
2022/08/14 06:01:53;;;;;;;;;;;;;;;;;;4890819;28;20006;-87
2022/08/14 06:04:31;;;;;;;;;;;;;;;;;;4883591;29;19915;-90
2022/08/14 06:06:59;;;;;;;;;;;;;;;;;;4868573;29;19919;-88
2022/08/14 06:09:27;;;;;;;;;;;;;;;;;;4900996;28;19942;-89
2022/08/14 06:11:53;;;;;;;;;;;;;;;;;;4896649;28;20006;-91
2022/08/14 06:14:19;;;;;;;;;;;;;;;;;;4878793;28;19927;-88
2022/08/14 06:16:50;;;;;;;;;;;;;;;;;;4924209;28;19922;-93
2022/08/14 06:19:25;;;;;;;;;;;;;;;;;;4996863;28;19923;-87
2022/08/14 06:21:52;;;;;;;;;;;;;;;;;;4920255;28;20397;-88
2022/08/14 06:24:19;;;;;;;;;;;;;;;;;;4924764;28;19942;-88
2022/08/14 06:29:28;;;;;;;;;;;;;;;;;;5020207;28;19917;-89
2022/08/14 06:32:03;;;;;;;;;;;;;;;;;;5017469;28;20227;-90
2022/08/14 06:34:28;;;;;;;;;;;;;;;;;;5044521;28;19924;-88
2022/08/14 06:36:55;;;;;;;;;;;;;;;;;;5042326;28;20495;-93
2022/08/14 06:39:23;;;;;;;;;;;;;;;;;;5039070;28;19953;-90
2022/08/14 06:41:48;;;;;;;;;;;;;;;;;;5052940;28;20638;-88
2022/08/14 06:44:15;;;;;;;;;;;;;;;;;;5037476;28;19967;-90
2022/08/14 06:46:43;;;;;;;;;;;;;;;;;;5056286;28;19912;-88
2022/08/14 06:52:06;;;;;;;;;;;;;;;;;;5011239;28;19918;-91
2022/08/14 06:54:31;;;;;;;;;;;;;;;;;;4996458;28;20652;-88
2022/08/14 06:57:03;;;;;;;;;;;;;;;;;;5010484;28;20012;-86
2022/08/14 06:59:28;;;;;;;;;;;;;;;;;;5010470;28;19929;-88
2022/08/14 07:07:22;;;;;;;;;;;;;;;;;;4956257;28;19923;-88
2022/08/14 07:09:48;;;;;;;;;;;;;;;;;;4922372;28;19919;-87
2022/08/14 07:12:15;;;;;;;;;;;;;;;;;;4897258;28;19923;-87
2022/08/14 07:14:40;;;;;;;;;;;;;;;;;;4896725;28;20229;-88
2022/08/14 07:17:08;;;;;;;;;;;;;;;;;;4920275;28;19914;-90
2022/08/14 07:19:34;;;;;;;;;;;;;;;;;;4906044;28;19927;-90
2022/08/14 07:21:59;;;;;;;;;;;;;;;;;;4936907;28;20379;-88
2022/08/14 07:24:25;;;;;;;;;;;;;;;;;;4954196;28;19922;-87
2022/08/14 07:26:52;;;;;;;;;;;;;;;;;;4960647;28;19915;-87
2022/08/14 07:29:21;;;;;;;;;;;;;;;;;;4958528;28;19934;-88
2022/08/14 07:31:46;;;;;;;;;;;;;;;;;;4936408;28;20309;-92
2022/08/14 07:34:12;;;;;;;;;;;;;;;;;;4931671;28;20017;-91
2022/08/14 07:36:37;;;;;;;;;;;;;;;;;;4935400;28;19922;-89
2022/08/14 07:39:03;;;;;;;;;;;;;;;;;;4935069;28;19926;-88
2022/08/14 07:41:29;;;;;;;;;;;;;;;;;;4950972;28;19919;-90
2022/08/14 07:43:54;;;;;;;;;;;;;;;;;;4934052;28;20025;-89
2022/08/14 07:46:20;;;;;;;;;;;;;;;;;;4951015;28;20679;-88
2022/08/14 07:48:47;;;;;;;;;;;;;;;;;;4933432;28;19953;-89
2022/08/14 07:51:13;;;;;;;;;;;;;;;;;;4955784;28;20499;-90
2022/08/14 07:53:38;;;;;;;;;;;;;;;;;;4951804;28;19950;-89
2022/08/14 07:56:03;;;;;;;;;;;;;;;;;;4935231;28;20351;-88
2022/08/14 07:58:29;;;;;;;;;;;;;;;;;;4933698;28;19922;-88
2022/08/14 08:00:54;;;;;;;;;;;;;;;;;;4952493;28;19914;-90
2022/08/14 08:03:19;;;;;;;;;;;;;;;;;;4965916;28;19925;-90
2022/08/14 08:05:45;;;;;;;;;;;;;;;;;;4935453;28;19929;-88
2022/08/14 08:08:10;;;;;;;;;;;;;;;;;;4931891;28;19998;-93
2022/08/14 08:10:37;;;;;;;;;;;;;;;;;;4929507;28;20485;-90
2022/08/14 08:13:02;;;;;;;;;;;;;;;;;;4948915;28;21176;-89
2022/08/14 08:15:31;;;;;;;;;;;;;;;;;;4951926;28;20013;-86
2022/08/14 08:17:56;;;;;;;;;;;;;;;;;;4935795;28;19989;-89
2022/08/14 08:20:31;;;;;;;;;;;;;;;;;;4949677;28;19930;-87
2022/08/14 08:22:57;;;;;;;;;;;;;;;;;;4932984;28;20312;-91
2022/08/14 08:25:22;;;;;;;;;;;;;;;;;;4949004;28;19945;-87
2022/08/14 08:27:58;;;;;;;;;;;;;;;;;;4951661;28;20380;-90
2022/08/14 08:30:24;;;;;;;;;;;;;;;;;;4950801;28;19997;-90
2022/08/14 08:32:55;;;;;;;;;;;;;;;;;;4951723;28;20411;-86
2022/08/14 08:35:21;;;;;;;;;;;;;;;;;;4951830;28;20005;-90
2022/08/14 08:37:50;;;;;;;;;;;;;;;;;;4956226;28;19969;-88
2022/08/14 08:40:34;;;;;;;;;;;;;;;;;;4947787;28;19923;-89
2022/08/14 08:43:06;;;;;;;;;;;;;;;;;;4951211;28;20013;-89
2022/08/14 08:45:34;;;;;;;;;;;;;;;;;;4943904;28;19922;-91
2022/08/14 08:48:10;;;;;;;;;;;;;;;;;;4951544;28;19903;-89
2022/08/14 08:50:40;;;;;;;;;;;;;;;;;;4952373;28;20690;-89
2022/08/14 08:53:05;;;;;;;;;;;;;;;;;;4948834;28;19918;-91
2022/08/14 08:58:29;;;;;;;;;;;;;;;;;;4964691;28;19942;-88
2022/08/14 09:07:13;;;;;;;;;;;;;;;;;;5019686;28;19919;-92
2022/08/14 09:09:50;;;;;;;;;;;;;;;;;;4949235;28;19923;-90
2022/08/14 09:12:15;;;;;;;;;;;;;;;;;;4953544;28;19914;-89
2022/08/14 09:14:51;;;;;;;;;;;;;;;;;;;;;
2022/08/14 09:17:19;;;;;;;;;;;;;;;;;;4950797;28;19917;-89
2022/08/14 09:19:48;;;;;;;;;;;;;;;;;;4954605;28;19914;-87
2022/08/14 09:22:17;;;;;;;;;;;;;;;;;;4940058;28;19923;-88
2022/08/14 09:24:54;;;;;;;;;;;;;;;;;;4938127;28;19915;-89
2022/08/14 09:27:19;;;;;;;;;;;;;;;;;;4951998;28;19923;-89
2022/08/14 09:29:46;;;;;;;;;;;;;;;;;;4957517;28;19918;-89
2022/08/14 09:32:18;;;;;;;;;;;;;;;;;;4956506;28;20032;-90
2022/08/14 09:34:43;;;;;;;;;;;;;;;;;;4961786;28;19922;-86
2022/08/14 09:37:14;;;;;;;;;;;;;;;;;;4952810;28;19972;-93
2022/08/14 09:42:28;;;;;;;;;;;;;;;;;;4961064;28;20018;-90
2022/08/14 09:44:54;;;;;;;;;;;;;;;;;;4987953;28;19936;-89
2022/08/14 09:47:36;;;;;;;;;;;;;;;;;;4962154;28;19916;-89
2022/08/14 09:50:06;;;;;;;;;;;;;;;;;;5036450;28;19941;-89
2022/08/14 09:52:31;;;;;;;;;;;;;;;;;;4935844;28;19974;-93
2022/08/14 09:55:07;;;;;;;;;;;;;;;;;;4936180;28;21603;-88
2022/08/14 09:57:50;;;;;;;;;;;;;;;;;;4956602;28;19984;-91
2022/08/14 10:00:18;;;;;;;;;;;;;;;;;;4936319;28;20013;-89
2022/08/14 10:02:43;;;;;;;;;;;;;;;;;;4937937;28;19998;-89
2022/08/14 10:05:09;;;;;;;;;;;;;;;;;;4953796;28;20007;-92
2022/08/14 10:07:38;;;;;;;;;;;;;;;;;;4953827;28;19929;-90
2022/08/14 10:10:17;;;;;;;;;;;;;;;;;;;;;
2022/08/14 10:12:54;;;;;;;;;;;;;;;;;;4951654;28;20001;-89
2022/08/14 10:15:28;;;;;;;;;;;;;;;;;;4953928;28;19919;-91
2022/08/14 10:17:54;;;;;;;;;;;;;;;;;;4933047;28;19922;-89
2022/08/14 10:20:21;;;;;;;;;;;;;;;;;;4951191;28;19929;-89
2022/08/14 10:22:48;;;;;;;;;;;;;;;;;;4935334;28;19926;-90
2022/08/14 10:25:20;;;;;;;;;;;;;;;;;;4933194;28;19923;-89
2022/08/14 10:27:49;;;;;;;;;;;;;;;;;;4942342;28;20790;-91
2022/08/14 10:30:26;;;;;;;;;;;;;;;;;;4936657;28;19914;-89
2022/08/14 10:32:52;;;;;;;;;;;;;;;;;;4936320;28;19923;-90
2022/08/14 10:35:18;;;;;;;;;;;;;;;;;;4937574;28;19937;-87
2022/08/14 10:37:48;;;;;;;;;;;;;;;;;;4929189;28;19933;-88
2022/08/14 10:40:14;;;;;;;;;;;;;;;;;;4952930;28;19923;-89
2022/08/14 10:42:39;;;;;;;;;;;;;;;;;;4949759;28;19929;-89
2022/08/14 10:45:05;;;;;;;;;;;;;;;;;;4949473;28;19950;-90
2022/08/14 10:47:31;;;;;;;;;;;;;;;;;;4935138;28;20075;-92
2022/08/14 10:49:59;;;;;;;;;;;;;;;;;;4936088;28;20418;-90
2022/08/14 10:52:28;;;;;;;;;;;;;;;;;;4938541;28;19915;-91
2022/08/14 10:55:06;;;;;;;;;;;;;;;;;;4934861;28;19984;-90
2022/08/14 10:58:11;;;;;;;;;;;;;;;;;;4954169;28;19950;-89
2022/08/14 11:00:38;;;;;;;;;;;;;;;;;;4952477;28;20794;-91
2022/08/14 11:05:54;;;;;;;;;;;;;;;;;;4949902;28;19922;-90
2022/08/14 11:11:05;;;;;;;;;;;;;;;;;;4965546;28;19919;-92
2022/08/14 11:13:31;;;;;;;;;;;;;;;;;;4949196;28;20287;-92
2022/08/14 11:16:02;;;;;;;;;;;;;;;;;;4952192;28;19914;-91
2022/08/14 11:19:00;;;;;;;;;;;;;;;;;;4952649;28;20011;-90
2022/08/14 11:21:30;;;;;;;;;;;;;;;;;;4947620;28;19961;-91
2022/08/14 11:23:57;;;;;;;;;;;;;;;;;;4950988;28;19923;-91
2022/08/14 11:26:23;;;;;;;;;;;;;;;;;;4948706;28;20410;-90
2022/08/14 11:29:02;;;;;;;;;;;;;;;;;;4944463;28;19923;-92
2022/08/14 11:31:49;;;;;;;;;;;;;;;;;;;;;
2022/08/14 11:34:14;;;;;;;;;;;;;;;;;;4947935;29;19922;-90
2022/08/14 11:37:00;;;;;;;;;;;;;;;;;;4952173;28;19962;-92
2022/08/14 11:39:25;;;;;;;;;;;;;;;;;;4949263;28;19954;-92
2022/08/14 11:41:51;;;;;;;;;;;;;;;;;;4928931;28;20017;-90
2022/08/14 11:44:19;;;;;;;;;;;;;;;;;;4937775;28;19922;-90
2022/08/14 11:46:47;;;;;;;;;;;;;;;;;;4951981;28;19918;-89
2022/08/14 11:49:12;;;;;;;;;;;;;;;;;;4955498;28;19937;-90
2022/08/14 11:51:38;;;;;;;;;;;;;;;;;;4936636;28;19946;-88
2022/08/14 11:54:04;;;;;;;;;;;;;;;;;;4951257;28;19942;-89
2022/08/14 11:56:40;;;;;;;;;;;;;;;;;;4933621;28;19926;-93
2022/08/14 11:59:08;;;;;;;;;;;;;;;;;;4953074;28;19919;-87
2022/08/14 12:01:49;;;;;;;;;;;;;;;;;;4960508;28;19959;-89
2022/08/14 12:04:26;;;;;;;;;;;;;;;;;;4954548;28;20139;-91
2022/08/14 12:06:51;;;;;;;;;;;;;;;;;;4953265;28;19970;-87
2022/08/14 12:09:16;;;;;;;;;;;;;;;;;;4939527;28;20325;-89
2022/08/14 12:11:43;;;;;;;;;;;;;;;;;;4959362;28;19976;-88
2022/08/14 12:14:09;;;;;;;;;;;;;;;;;;4942890;28;19953;-87
2022/08/14 12:16:52;;;;;;;;;;;;;;;;;;4944950;28;19923;-88
2022/08/14 12:19:17;;;;;;;;;;;;;;;;;;4940220;28;19934;-90
2022/08/14 12:21:43;;;;;;;;;;;;;;;;;;4955867;28;20519;-88
2022/08/14 12:24:11;;;;;;;;;;;;;;;;;;4943033;28;19949;-88
2022/08/14 12:26:39;;;;;;;;;;;;;;;;;;4943460;28;19972;-90
2022/08/14 12:29:27;;;;;;;;;;;;;;;;;;4961807;28;19941;-90
2022/08/14 12:31:57;;;;;;;;;;;;;;;;;;4947563;28;19922;-88
2022/08/14 12:34:47;;;;;;;;;;;;;;;;;;4962259;28;19953;-88
2022/08/14 12:37:13;;;;;;;;;;;;;;;;;;4973299;28;19915;-89
2022/08/14 12:39:41;;;;;;;;;;;;;;;;;;4963956;28;20001;-90
2022/08/14 12:42:34;;;;;;;;;;;;;;;;;;4959981;28;19972;-91
2022/08/14 12:45:03;;;;;;;;;;;;;;;;;;4946812;28;20543;-91
2022/08/14 12:47:31;;;;;;;;;;;;;;;;;;4946753;28;19919;-89
2022/08/14 12:50:03;;;;;;;;;;;;;;;;;;4959830;28;19926;-92
2022/08/14 12:52:44;;;;;;;;;;;;;;;;;;4996290;28;20023;-91
2022/08/14 12:55:15;;;;;;;;;;;;;;;;;;4973682;28;20741;-90
2022/08/14 13:00:34;;;;;;;;;;;;;;;;;;4974026;28;20384;-88
2022/08/14 13:03:10;;;;;;;;;;;;;;;;;;4966673;28;19930;-91
2022/08/14 13:05:36;;;;;;;;;;;;;;;;;;4977046;28;21902;-91
2022/08/14 13:08:02;;;;;;;;;;;;;;;;;;4975909;28;19926;-90
2022/08/14 13:10:28;;;;;;;;;;;;;;;;;;4979309;28;19922;-91
2022/08/14 13:12:53;;;;;;;;;;;;;;;;;;4980074;28;19918;-88
2022/08/14 13:15:19;;;;;;;;;;;;;;;;;;4980930;28;19925;-91
2022/08/14 13:17:48;;;;;;;;;;;;;;;;;;4986615;28;19914;-88
2022/08/14 13:20:13;;;;;;;;;;;;;;;;;;4990039;28;19924;-89
2022/08/14 13:22:40;;;;;;;;;;;;;;;;;;4987867;28;19958;-91
2022/08/14 13:25:05;;;;;;;;;;;;;;;;;;4957778;28;19933;-88
2022/08/14 13:30:17;;;;;;;;;;;;;;;;;;4972280;28;20001;-90
2022/08/14 13:32:45;;;;;;;;;;;;;;;;;;4958196;28;19981;-91
2022/08/14 13:35:14;;;;;;;;;;;;;;;;;;4947820;28;20016;-91
2022/08/14 13:37:40;;;;;;;;;;;;;;;;;;4935444;28;19914;-91
2022/08/14 13:40:16;;;;;;;;;;;;;;;;;;4956589;28;19954;-93
2022/08/14 13:42:49;;;;;;;;;;;;;;;;;;4955223;28;19914;-93
2022/08/14 13:48:14;;;;;;;;;;;;;;;;;;4967215;28;20506;-91
2022/08/14 13:51:04;;;;;;;;;;;;;;;;;;5066388;28;19920;-91
2022/08/14 13:53:37;;;;;;;;;;;;;;;;;;5054783;28;20035;-94
2022/08/14 13:56:04;;;;;;;;;;;;;;;;;;5053963;28;19916;-92
2022/08/14 13:58:32;;;;;;;;;;;;;;;;;;5039683;28;19963;-92
2022/08/14 14:00:58;;;;;;;;;;;;;;;;;;5056382;28;20590;-93
2022/08/14 14:03:28;;;;;;;;;;;;;;;;;;5038829;28;19960;-90
2022/08/14 14:05:54;;;;;;;;;;;;;;;;;;5042228;28;20004;-88
2022/08/14 14:08:20;;;;;;;;;;;;;;;;;;5042230;28;19955;-88
2022/08/14 14:10:46;;;;;;;;;;;;;;;;;;5055199;28;20035;-91
2022/08/14 14:13:18;;;;;;;;;;;;;;;;;;5035913;28;19913;-91
2022/08/14 14:15:44;;;;;;;;;;;;;;;;;;5046209;28;20058;-93
2022/08/14 14:18:29;;;;;;;;;;;;;;;;;;5067402;28;19954;-88
2022/08/14 14:20:55;;;;;;;;;;;;;;;;;;5056548;28;19933;-90
2022/08/14 14:23:36;;;;;;;;;;;;;;;;;;4963135;28;19927;-93
2022/08/14 14:26:02;;;;;;;;;;;;;;;;;;4970348;28;19918;-90
2022/08/14 14:28:40;;;;;;;;;;;;;;;;;;4971626;28;19918;-89
2022/08/14 14:31:07;;;;;;;;;;;;;;;;;;4950694;28;19997;-88
2022/08/14 14:33:33;;;;;;;;;;;;;;;;;;4933895;28;19929;-91
2022/08/14 14:36:00;;;;;;;;;;;;;;;;;;4949788;28;19919;-90
2022/08/14 14:42:07;;;;;;;;;;;;;;;;;;4959204;28;19921;-90
2022/08/14 14:44:43;;;;;;;;;;;;;;;;;;4969374;28;19919;-89
2022/08/14 14:47:08;;;;;;;;;;;;;;;;;;4935958;28;19965;-89
2022/08/14 14:49:41;;;;;;;;;;;;;;;;;;4935583;28;19918;-91
2022/08/14 14:52:07;;;;;;;;;;;;;;;;;;4950022;28;19927;-90
2022/08/14 14:54:39;;;;;;;;;;;;;;;;;;4957129;28;19922;-90
2022/08/14 14:57:12;;;;;;;;;;;;;;;;;;4960142;28;19922;-89
2022/08/14 14:59:46;;;;;;;;;;;;;;;;;;4959080;28;19925;-91
2022/08/14 15:02:14;;;;;;;;;;;;;;;;;;4933741;28;19922;-89
2022/08/14 15:04:43;;;;;;;;;;;;;;;;;;4938057;28;19927;-90
2022/08/14 15:07:25;;;;;;;;;;;;;;;;;;4940163;28;19960;-88
2022/08/14 15:09:51;;;;;;;;;;;;;;;;;;4935608;28;19915;-92
2022/08/14 15:12:20;;;;;;;;;;;;;;;;;;4936425;28;20393;-90
2022/08/14 15:14:48;;;;;;;;;;;;;;;;;;4958148;28;19914;-88
2022/08/14 15:17:13;;;;;;;;;;;;;;;;;;4962044;28;19914;-91
2022/08/14 15:19:40;;;;;;;;;;;;;;;;;;4951003;28;20000;-91
2022/08/14 15:22:41;;;;;;;;;;;;;;;;;;4944059;28;19930;-92
2022/08/14 15:25:08;;;;;;;;;;;;;;;;;;4916851;28;19926;-91
2022/08/14 15:27:33;;;;;;;;;;;;;;;;;;4929154;28;19913;-91
2022/08/14 15:29:59;;;;;;;;;;;;;;;;;;4922924;28;19968;-92
2022/08/14 15:32:24;;;;;;;;;;;;;;;;;;4923265;28;19973;-88
2022/08/14 15:34:50;;;;;;;;;;;;;;;;;;5015245;28;19940;-93
2022/08/14 15:37:17;;;;;;;;;;;;;;;;;;5018775;28;19909;-91
2022/08/14 15:39:42;;;;;;;;;;;;;;;;;;4939687;28;20383;-90
2022/08/14 15:42:10;;;;;;;;;;;;;;;;;;4939251;28;19915;-91
2022/08/14 15:44:39;;;;;;;;;;;;;;;;;;4921096;28;20044;-91
2022/08/14 15:47:08;;;;;;;;;;;;;;;;;;4941371;28;19973;-90
2022/08/14 15:49:38;;;;;;;;;;;;;;;;;;4919732;28;19915;-92
2022/08/14 15:52:10;;;;;;;;;;;;;;;;;;4959707;28;20562;-90
2022/08/14 15:54:38;;;;;;;;;;;;;;;;;;5000567;28;19920;-90
2022/08/14 15:57:06;;;;;;;;;;;;;;;;;;5033936;28;19913;-89
2022/08/14 16:02:18;;;;;;;;;;;;;;;;;;5039770;28;19912;-89
2022/08/14 16:04:44;;;;;;;;;;;;;;;;;;5072554;28;19920;-90
2022/08/14 16:07:10;;;;;;;;;;;;;;;;;;5044572;28;19955;-91
2022/08/14 16:09:38;;;;;;;;;;;;;;;;;;5056559;28;20003;-90
2022/08/14 16:12:07;;;;;;;;;;;;;;;;;;5034298;28;19926;-88
2022/08/14 16:14:37;;;;;;;;;;;;;;;;;;5019448;28;19918;-91
2022/08/14 16:17:07;;;;;;;;;;;;;;;;;;5011039;28;20545;-93
2022/08/14 16:19:33;;;;;;;;;;;;;;;;;;5037495;28;19918;-90
2022/08/14 16:22:18;;;;;;;;;;;;;;;;;;5035635;28;19951;-92
2022/08/14 16:24:52;;;;;;;;;;;;;;;;;;5043815;28;21822;-89
2022/08/14 16:27:20;;;;;;;;;;;;;;;;;;5050149;28;19927;-93
2022/08/14 16:29:49;;;;;;;;;;;;;;;;;;5047949;28;20545;-90
2022/08/14 16:32:17;;;;;;;;;;;;;;;;;;5036085;28;20496;-91
2022/08/14 16:34:43;;;;;;;;;;;;;;;;;;5052428;28;19917;-90
2022/08/14 16:37:11;;;;;;;;;;;;;;;;;;5057778;28;19931;-87
2022/08/14 16:39:49;;;;;;;;;;;;;;;;;;5037027;28;19921;-89
2022/08/14 16:42:19;;;;;;;;;;;;;;;;;;5038565;28;19949;-90
2022/08/14 16:44:44;;;;;;;;;;;;;;;;;;5009856;28;19936;-89
2022/08/14 16:47:13;;;;;;;;;;;;;;;;;;5033985;28;19939;-90
2022/08/14 16:52:59;;;;;;;;;;;;;;;;;;5043616;28;19992;-88
2022/08/14 16:55:27;;;;;;;;;;;;;;;;;;5042926;28;19917;-90
2022/08/14 16:58:19;;;;;;;;;;;;;;;;;;5041898;28;19981;-89
2022/08/14 17:00:45;;;;;;;;;;;;;;;;;;5014872;28;20074;-89
2022/08/14 17:03:10;;;;;;;;;;;;;;;;;;5013110;28;19925;-88
2022/08/14 17:05:37;;;;;;;;;;;;;;;;;;5035103;28;19928;-89
2022/08/14 17:08:02;;;;;;;;;;;;;;;;;;5017834;28;19913;-91
2022/08/14 17:10:30;;;;;;;;;;;;;;;;;;4997247;28;20018;-92
2022/08/14 17:12:55;;;;;;;;;;;;;;;;;;4985516;28;19948;-89
2022/08/14 17:15:23;;;;;;;;;;;;;;;;;;4958843;28;20015;-89
2022/08/14 17:17:49;;;;;;;;;;;;;;;;;;4978834;28;19957;-92
2022/08/14 17:20:18;;;;;;;;;;;;;;;;;;4956770;28;19948;-88
2022/08/14 17:22:46;;;;;;;;;;;;;;;;;;4979758;28;20189;-91
2022/08/14 17:25:11;;;;;;;;;;;;;;;;;;4976916;28;19964;-92
2022/08/14 17:27:37;;;;;;;;;;;;;;;;;;4959621;28;20353;-92
2022/08/14 17:30:05;;;;;;;;;;;;;;;;;;4992772;28;19957;-91
2022/08/14 17:32:31;;;;;;;;;;;;;;;;;;4976531;28;19918;-91
2022/08/14 17:34:59;;;;;;;;;;;;;;;;;;4962448;28;20488;-89
2022/08/14 17:37:28;;;;;;;;;;;;;;;;;;4966954;28;21303;-89
2022/08/14 17:39:53;;;;;;;;;;;;;;;;;;4972874;28;21468;-91
2022/08/14 17:42:19;;;;;;;;;;;;;;;;;;4965669;28;20001;-91
2022/08/14 17:44:46;;;;;;;;;;;;;;;;;;4996120;28;19936;-91
2022/08/14 17:53:14;;;;;;;;;;;;;;;;;;4990699;28;20451;-91
2022/08/14 17:55:40;;;;;;;;;;;;;;;;;;4991641;28;19913;-90
2022/08/14 17:58:05;;;;;;;;;;;;;;;;;;4977449;28;19972;-89
2022/08/14 18:00:32;;;;;;;;;;;;;;;;;;4983811;28;19925;-90
2022/08/14 18:03:00;;;;;;;;;;;;;;;;;;4978604;28;19932;-90
2022/08/14 18:05:28;;;;;;;;;;;;;;;;;;4980624;28;20535;-88
2022/08/14 18:07:57;;;;;;;;;;;;;;;;;;4964764;28;19923;-90